Time;durP1;ratioP1;P1;durP2;ratioP2;P2;SDS_P1;SDS_P2;PMS_P1;PMS_P2;Temp;Humidity;BMP_temperature;BMP_pressure;BME280_temperature;BME280_humidity;BME280_pressure;Samples;Min_cycle;Max_cycle;Signal;HPM_P1;HPM_P2
2022/07/22 00:00:05;;;;;;;6.53;5.93;;;;;;;23.43;58.64;94907.78;5056276;28;20566;-81
2022/07/22 00:02:32;;;;;;;10.53;6.70;;;;;;;23.37;59.34;94913.13;5056520;28;20805;-86
2022/07/22 00:04:59;;;;;;;8.07;6.57;;;;;;;23.27;58.99;94910.06;5056470;28;20448;-86
2022/07/22 00:07:25;;;;;;;8.17;6.50;;;;;;;23.16;59.46;94912.34;5056362;28;20453;-84
2022/07/22 00:09:52;;;;;;;10.07;6.40;;;;;;;23.06;59.85;94906.56;5021233;28;20453;-81
2022/07/22 00:12:19;;;;;;;9.67;6.37;;;;;;;23.07;60.50;94912.75;5037497;28;20936;-84
2022/07/22 00:14:47;;;;;;;8.93;7.17;;;;;;;23.06;60.79;94917.28;5056139;28;20457;-84
2022/07/22 00:17:14;;;;;;;9.00;6.43;;;;;;;23.09;60.84;94918.72;5056458;28;20478;-84
2022/07/22 00:19:41;;;;;;;10.03;6.60;;;;;;;23.11;61.09;94920.16;5055597;28;20431;-84
2022/07/22 00:22:08;;;;;;;18.73;7.13;;;;;;;23.14;60.66;94916.25;5056146;28;20484;-84
2022/07/22 00:24:35;;;;;;;8.23;6.30;;;;;;;23.16;60.41;94924.91;5055623;28;20442;-85
2022/07/22 00:27:01;;;;;;;7.43;6.50;;;;;;;23.16;60.13;94924.91;5020950;28;20457;-85
2022/07/22 00:29:28;;;;;;;7.50;6.73;;;;;;;23.14;60.25;94924.28;5055980;28;20804;-84
2022/07/22 00:31:56;;;;;;;9.70;6.57;;;;;;;23.17;60.19;94931.91;5055868;28;20800;-85
2022/07/22 00:34:23;;;;;;;8.83;6.30;;;;;;;23.18;60.23;94920.16;5037093;28;20437;-83
2022/07/22 00:36:50;;;;;;;10.50;6.20;;;;;;;23.15;59.23;94924.09;5055216;28;20481;-85
2022/07/22 00:39:17;;;;;;;7.20;6.37;;;;;;;23.15;59.55;94931.28;5055840;28;20452;-85
2022/07/22 00:41:43;;;;;;;7.80;6.37;;;;;;;23.13;59.68;94923.47;5055838;28;20506;-83
2022/07/22 00:44:11;;;;;;;6.73;5.97;;;;;;;23.09;59.49;94924.88;5055357;28;20802;-85
2022/07/22 00:46:39;;;;;;;6.60;6.00;;;;;;;23.05;59.69;94925.50;5055623;28;20967;-84
2022/07/22 00:49:08;;;;;;;6.50;6.00;;;;;;;23.05;59.24;94920.97;5055636;28;20441;-85
2022/07/22 00:51:37;;;;;;;8.10;5.83;;;;;;;23.01;59.20;94921.59;5055508;28;20507;-84
2022/07/22 00:54:04;;;;;;;10.20;5.83;;;;;;;22.99;59.10;94919.13;5055415;28;20449;-82
2022/07/22 00:56:31;;;;;;;6.03;5.33;;;;;;;22.98;59.04;94920.16;5055580;28;20481;-83
2022/07/22 00:59:01;;;;;;;8.00;6.30;;;;;;;23.00;59.13;94922.63;5055180;28;20452;-84
2022/07/22 01:01:28;;;;;;;6.10;5.43;;;;;;;23.00;59.43;94922.63;5055428;28;20830;-83
2022/07/22 01:03:55;;;;;;;7.33;5.47;;;;;;;22.92;59.49;94912.97;5055329;28;20446;-84
2022/07/22 01:06:24;;;;;;;5.73;5.20;;;;;;;22.90;60.16;94915.03;5036581;28;20793;-85
2022/07/22 01:08:50;;;;;;;6.80;5.80;;;;;;;22.84;60.31;94914.00;5019962;28;20449;-81
2022/07/22 01:11:18;;;;;;;10.03;6.20;;;;;;;22.80;60.91;94911.88;5054973;28;20476;-83
2022/07/22 01:13:46;;;;;;;6.53;6.03;;;;;;;22.68;61.52;94900.97;5055213;28;20446;-86
2022/07/22 01:16:15;;;;;;;7.63;5.80;;;;;;;22.71;61.61;94911.25;5054771;28;21021;-83
2022/07/22 01:18:42;;;;;;;7.37;6.70;;;;;;;22.65;61.76;94909.41;5054906;28;20453;-83
2022/07/22 01:21:11;;;;;;;7.93;6.60;;;;;;;22.61;61.73;94910.84;5055195;28;20450;-87
2022/07/22 01:23:39;;;;;;;9.13;6.07;;;;;;;22.59;61.69;94912.91;5054838;28;20528;-86
2022/07/22 01:26:06;;;;;;;6.53;5.93;;;;;;;22.52;61.91;94910.19;5054753;28;20972;-83
2022/07/22 01:28:33;;;;;;;13.87;6.70;;;;;;;22.54;61.91;94918.00;5054468;28;20920;-84
2022/07/22 01:31:01;;;;;;;6.30;5.50;;;;;;;22.51;62.06;94916.56;5036188;28;20449;-85
2022/07/22 01:33:28;;;;;;;11.43;7.47;;;;;;;22.53;62.09;94919.03;5054673;28;20484;-82
2022/07/22 01:35:54;;;;;;;7.87;6.60;;;;;;;22.54;61.91;94907.31;5054336;28;20493;-82
2022/07/22 01:38:23;;;;;;;11.70;7.33;;;;;;;22.53;61.93;94905.66;5054369;28;20835;-82
2022/07/22 01:40:54;;;;;;;10.80;6.23;;;;;;;22.49;62.30;94910.59;5054592;28;20473;-85
2022/07/22 01:43:20;;;;;;;8.50;6.40;;;;;;;22.43;62.49;94910.59;5054438;28;20462;-85
2022/07/22 01:45:49;;;;;;;6.97;6.27;;;;;;;22.39;62.69;94909.34;5054251;28;20445;-85
2022/07/22 01:48:16;;;;;;;8.10;5.93;;;;;;;22.34;62.57;94909.16;5053571;28;20446;-85
2022/07/22 01:50:44;;;;;;;8.03;6.60;;;;;;;22.33;62.64;94913.66;5054640;28;20454;-85
2022/07/22 01:53:11;;;;;;;11.13;6.67;;;;;;;22.29;62.88;94906.25;5053983;28;20477;-82
2022/07/22 01:55:40;;;;;;;7.63;6.30;;;;;;;22.30;62.94;94907.91;5054217;28;20445;-82
2022/07/22 01:58:07;;;;;;;9.43;6.47;;;;;;;22.28;63.18;94915.31;5054045;28;20450;-85
2022/07/22 02:00:34;;;;;;;7.50;6.70;;;;;;;22.31;63.08;94920.25;5053723;28;20462;-84
2022/07/22 02:03:02;;;;;;;7.27;6.57;;;;;;;22.27;62.96;94919.00;5019051;28;20489;-85
2022/07/22 02:05:29;;;;;;;7.50;6.80;;;;;;;22.28;62.72;94916.13;5053977;28;20454;-82
2022/07/22 02:08:01;;;;;;;7.00;6.30;;;;;;;22.28;62.90;94917.97;5018903;28;20442;-85
2022/07/22 02:10:27;;;;;;;7.57;6.77;;;;;;;22.28;63.36;94918.81;5053722;28;20442;-86
2022/07/22 02:12:56;;;;;;;8.80;6.43;;;;;;;21.78;66.17;94922.69;5018570;28;20446;-85
2022/07/22 02:15:22;;;;;;;8.80;7.47;;;;;;;21.17;68.00;94933.16;5019051;28;20940;-86
2022/07/22 02:17:49;;;;;;;11.30;7.83;;;;;;;20.91;68.39;94931.09;5053839;28;20473;-86
2022/07/22 02:20:16;;;;;;;8.50;7.60;;;;;;;20.85;68.76;94932.69;5054607;28;20438;-85
2022/07/22 02:22:43;;;;;;;9.37;6.70;;;;;;;20.85;69.31;94929.19;5053681;28;20931;-84
2022/07/22 02:25:10;;;;;;;10.57;8.40;;;;;;;20.91;68.86;94937.25;5054393;28;20507;-85
2022/07/22 02:27:37;;;;;;;9.43;7.50;;;;;;;20.98;68.81;94938.13;5054422;28;20453;-85
2022/07/22 02:30:07;;;;;;;8.83;7.63;;;;;;;21.06;68.64;94942.50;5053820;28;20866;-85
2022/07/22 02:32:34;;;;;;;7.67;6.93;;;;;;;21.02;68.72;94944.72;5053849;28;20440;-85
2022/07/22 02:35:01;;;;;;;9.43;7.40;;;;;;;21.11;68.58;94936.59;5053378;28;20450;-85
2022/07/22 02:37:28;;;;;;;10.50;8.30;;;;;;;21.15;68.06;94938.69;5053796;28;20959;-85
2022/07/22 02:39:55;;;;;;;8.20;7.40;;;;;;;21.17;67.88;94941.16;5053367;28;20433;-85
2022/07/22 02:42:22;;;;;;;10.23;9.23;;;;;;;21.22;68.41;94934.22;5019082;28;20564;-86
2022/07/22 02:44:48;;;;;;;9.30;7.53;;;;;;;21.20;67.92;94927.44;5053790;28;20500;-84
2022/07/22 02:47:17;;;;;;;12.03;8.27;;;;;;;21.21;68.09;94937.06;5053781;28;20478;-86
2022/07/22 02:49:43;;;;;;;9.10;8.20;;;;;;;21.23;68.25;94937.72;5053447;28;20454;-84
2022/07/22 02:52:10;;;;;;;12.70;7.97;;;;;;;21.24;68.52;94937.53;5035517;28;20449;-83
2022/07/22 02:54:37;;;;;;;11.83;7.93;;;;;;;21.25;68.23;94933.84;5053513;28;20448;-84
2022/07/22 02:57:04;;;;;;;18.30;8.93;;;;;;;21.27;67.59;94933.66;5053148;28;20489;-85
2022/07/22 02:59:31;;;;;;;11.10;7.73;;;;;;;21.33;67.24;94930.19;5018602;28;20443;-84
2022/07/22 03:01:58;;;;;;;13.07;7.17;;;;;;;21.37;67.08;94936.81;5053382;28;20457;-80
2022/07/22 03:04:26;;;;;;;10.60;7.70;;;;;;;21.33;66.70;94938.22;5053614;28;20430;-86
2022/07/22 03:06:53;;;;;;;7.80;7.13;;;;;;;21.35;66.30;94933.50;5053303;28;20434;-85
2022/07/22 03:09:20;;;;;;;10.53;7.20;;;;;;;21.28;66.06;94927.31;5053385;28;20457;-84
2022/07/22 03:11:47;;;;;;;8.07;6.80;;;;;;;21.36;66.19;94924.47;5052936;28;20847;-84
2022/07/22 03:14:14;;;;;;;7.57;6.80;;;;;;;21.29;66.11;94929.78;5053099;28;20445;-85
2022/07/22 03:16:40;;;;;;;8.50;7.70;;;;;;;21.37;66.24;94938.63;5053720;28;20485;-86
2022/07/22 03:19:07;;;;;;;8.10;7.30;;;;;;;21.40;66.25;94935.59;5034810;28;20442;-85
2022/07/22 03:21:35;;;;;;;7.87;6.60;;;;;;;21.47;66.17;94933.81;5052961;28;20430;-83
2022/07/22 03:24:02;;;;;;;7.43;6.73;;;;;;;21.50;66.01;94936.06;5034401;28;20465;-85
2022/07/22 03:26:29;;;;;;;8.40;6.87;;;;;;;21.55;65.95;94937.13;5053362;28;20454;-84
2022/07/22 03:28:56;;;;;;;8.67;6.87;;;;;;;21.59;65.92;94933.03;5053518;28;20444;-84
2022/07/22 03:31:22;;;;;;;7.73;7.03;;;;;;;21.67;65.38;94923.22;5053125;28;20442;-84
2022/07/22 03:33:49;;;;;;;10.47;6.93;;;;;;;21.78;64.88;94928.03;5053127;28;20925;-84
2022/07/22 03:36:16;;;;;;;9.43;7.87;;;;;;;21.90;64.52;94929.91;5052979;28;20453;-84
2022/07/22 03:38:45;;;;;;;10.13;6.80;;;;;;;22.10;63.97;94939.91;5052935;28;20921;-85
2022/07/22 03:41:11;;;;;;;7.97;7.17;;;;;;;22.28;62.60;94939.38;5052904;28;20446;-85
2022/07/22 03:43:38;;;;;;;9.07;7.57;;;;;;;22.36;62.12;94940.00;5017723;28;20442;-86
2022/07/22 03:46:05;;;;;;;9.33;7.20;;;;;;;22.43;62.08;94948.03;5053201;28;20481;-86
2022/07/22 03:48:32;;;;;;;16.13;7.33;;;;;;;22.40;61.96;94949.25;5053072;28;20441;-86
2022/07/22 03:50:59;;;;;;;8.90;7.93;;;;;;;22.41;62.46;94952.75;5052670;28;20433;-86
2022/07/22 03:53:25;;;;;;;7.07;6.57;;;;;;;22.45;62.71;94951.31;5052827;28;20496;-85
2022/07/22 03:55:54;;;;;;;6.67;6.13;;;;;;;22.96;61.71;94949.00;5052669;28;20498;-85
2022/07/22 03:58:24;;;;;;;8.77;6.50;;;;;;;23.69;58.96;94957.81;5018239;28;20988;-86
2022/07/22 04:00:51;;;;;;;8.97;8.17;;;;;;;24.02;57.82;94952.41;5052182;28;20448;-82
2022/07/22 04:03:17;;;;;;;9.30;8.40;;;;;;;24.28;57.06;94954.16;5052425;28;20441;-81
2022/07/22 04:05:45;;;;;;;7.93;6.60;;;;;;;24.58;55.52;94957.13;5033511;28;20442;-83
2022/07/22 04:08:12;;;;;;;9.20;6.77;;;;;;;24.87;55.34;94963.78;5052692;28;20484;-79
2022/07/22 04:10:39;;;;;;;13.53;7.40;;;;;;;25.25;54.43;94958.34;5052230;28;20442;-82
2022/07/22 04:13:07;;;;;;;11.07;7.03;;;;;;;25.62;53.00;94961.94;5055834;28;20528;-81
2022/07/22 04:15:34;;;;;;;7.27;6.20;;;;;;;25.88;52.79;94955.53;5055942;28;20464;-83
2022/07/22 04:18:01;;;;;;;10.13;7.70;;;;;;;26.13;52.22;94960.03;5055805;28;21033;-82
2022/07/22 04:20:28;;;;;;;7.20;6.50;;;;;;;26.38;50.82;94963.47;5055743;28;20453;-82
2022/07/22 04:22:54;;;;;;;12.30;7.13;;;;;;;26.64;49.90;94967.69;5055573;28;20464;-80
2022/07/22 04:25:21;;;;;;;9.20;7.80;;;;;;;26.85;49.99;94971.75;5037013;28;20445;-82
2022/07/22 04:27:48;;;;;;;10.27;7.30;;;;;;;27.00;49.05;94974.88;5055461;28;20449;-82
2022/07/22 04:30:16;;;;;;;10.00;7.30;;;;;;;27.17;50.33;94973.16;5055539;28;20450;-80
2022/07/22 04:32:43;;;;;;;8.07;7.37;;;;;;;27.37;48.80;94977.41;5055108;28;20481;-79
2022/07/22 04:35:10;;;;;;;7.70;7.00;;;;;;;27.51;48.63;94978.84;5055505;28;20449;-79
2022/07/22 04:37:37;;;;;;;9.20;8.00;;;;;;;27.65;47.89;94977.59;5054912;28;20485;-81
2022/07/22 04:40:04;;;;;;;13.83;7.30;;;;;;;27.86;49.99;94986.16;5054376;28;20461;-83
2022/07/22 04:42:31;;;;;;;10.43;7.70;;;;;;;27.90;47.59;94990.03;5020828;28;20434;-83
2022/07/22 04:44:58;;;;;;;13.27;9.40;;;;;;;28.02;46.27;94988.97;5055223;28;20449;-82
2022/07/22 04:47:26;;;;;;;20.23;12.70;;;;;;;27.97;45.37;94991.56;5055564;28;20501;-80
2022/07/22 04:49:53;;;;;;;15.10;11.27;;;;;;;28.02;47.18;94994.34;5065286;28;20460;-83
2022/07/22 04:52:20;;;;;;;23.43;12.67;;;;;;;27.85;46.80;94996.13;5075069;28;20480;-81
2022/07/22 04:54:47;;;;;;;22.70;13.23;;;;;;;27.34;47.52;94997.56;5060880;28;20457;-82
2022/07/22 04:57:14;;;;;;;20.17;13.27;;;;;;;27.24;48.97;95002.72;5067791;28;20542;-83
2022/07/22 04:59:41;;;;;;;24.00;13.27;;;;;;;27.09;49.45;95003.13;5068440;28;20526;-78
2022/07/22 05:02:08;;;;;;;25.53;11.43;;;;;;;26.92;50.25;94999.41;5060369;28;20453;-81
2022/07/22 05:04:36;;;;;;;19.07;11.90;;;;;;;26.98;50.46;95000.38;5063482;28;20936;-83
2022/07/22 05:07:03;;;;;;;23.03;12.83;;;;;;;26.95;49.86;94998.13;5058432;28;20445;-83
2022/07/22 05:09:31;;;;;;;25.33;12.60;;;;;;;27.00;48.60;95004.50;5074918;28;20775;-83
2022/07/22 05:11:57;;;;;;;21.07;11.20;;;;;;;27.01;48.80;94998.06;5058151;28;20445;-82
2022/07/22 05:14:24;;;;;;;17.17;12.23;;;;;;;27.32;50.04;94998.84;5054782;28;20453;-80
2022/07/22 05:16:51;;;;;;;29.67;13.70;;;;;;;27.76;49.02;94998.38;5054685;28;20917;-82
2022/07/22 05:19:18;;;;;;;19.47;13.57;;;;;;;28.30;47.19;94996.34;5035116;28;20447;-83
2022/07/22 05:21:46;;;;;;;15.73;12.40;;;;;;;28.87;45.17;94991.06;5034918;28;20461;-83
2022/07/22 05:24:13;;;;;;;14.17;10.20;;;;;;;29.16;45.06;95001.84;5053217;28;20450;-82
2022/07/22 05:26:40;;;;;;;15.70;9.20;;;;;;;29.49;43.42;94995.69;5054608;28;20450;-82
2022/07/22 05:29:07;;;;;;;10.60;7.77;;;;;;;29.63;43.44;94999.72;5036122;28;20449;-82
2022/07/22 05:31:33;;;;;;;23.77;19.23;;;;;;;29.70;43.08;94999.56;5054924;28;20445;-82
2022/07/22 05:34:00;;;;;;;9.50;7.33;;;;;;;29.94;42.61;95003.72;5054315;28;20474;-83
2022/07/22 05:36:27;;;;;;;8.37;7.50;;;;;;;30.05;42.32;95005.53;5054149;28;20449;-81
2022/07/22 05:38:58;;;;;;;8.30;7.50;;;;;;;30.24;42.72;95002.56;5052438;28;20485;-84
2022/07/22 05:41:24;;;;;;;9.63;7.03;;;;;;;30.32;41.65;95004.84;5053060;28;20445;-83
2022/07/22 05:43:51;;;;;;;15.60;6.90;;;;;;;30.53;41.91;95009.44;5052890;28;20442;-81
2022/07/22 05:46:18;;;;;;;39.60;32.47;;;;;;;30.79;42.11;95006.03;5052737;28;20485;-84
2022/07/22 05:48:45;;;;;;;9.33;6.67;;;;;;;30.88;41.30;95005.56;5053310;28;20453;-83
2022/07/22 05:51:13;;;;;;;7.47;6.77;;;;;;;31.02;40.98;95012.25;5053232;28;20453;-82
2022/07/22 05:53:40;;;;;;;7.37;6.53;;;;;;;31.10;40.95;95003.66;5053320;28;20450;-81
2022/07/22 05:56:10;;;;;;;12.17;7.80;;;;;;;31.23;39.85;95000.56;5053482;28;20437;-83
2022/07/22 05:58:37;;;;;;;13.17;8.67;;;;;;;31.37;39.56;94995.53;5053011;28;20563;-83
2022/07/22 06:01:05;;;;;;;10.10;7.37;;;;;;;31.56;39.23;95006.84;5052884;28;20442;-82
2022/07/22 06:03:32;;;;;;;12.47;7.40;;;;;;;31.62;38.64;95005.81;5052660;28;20444;-84
2022/07/22 06:06:01;;;;;;;15.53;8.67;;;;;;;31.66;39.12;95007.75;5053461;28;20513;-84
2022/07/22 06:08:27;;;;;;;10.90;7.50;;;;;;;31.55;38.29;95008.75;5052977;28;20446;-83
2022/07/22 06:10:54;;;;;;;8.80;6.30;;;;;;;31.78;38.87;95009.47;5052691;28;20445;-80
2022/07/22 06:13:23;;;;;;;9.80;7.17;;;;;;;31.99;37.82;95005.84;5052788;28;20845;-84
2022/07/22 06:15:49;;;;;;;7.50;6.77;;;;;;;32.10;36.34;95009.47;5052994;28;20441;-84
2022/07/22 06:18:16;;;;;;;11.73;7.17;;;;;;;32.25;37.27;95010.41;5052969;28;20474;-82
2022/07/22 06:20:43;;;;;;;10.53;7.63;;;;;;;32.21;35.49;95003.81;5052800;28;20457;-84
2022/07/22 06:23:10;;;;;;;9.97;7.97;;;;;;;32.13;36.28;95006.22;5017758;28;20437;-83
2022/07/22 06:25:37;;;;;;;10.40;8.20;;;;;;;32.04;37.03;95001.25;5053068;28;20449;-81
2022/07/22 06:28:04;;;;;;;10.57;7.90;;;;;;;32.13;37.05;95006.22;5052498;28;20445;-84
2022/07/22 06:30:32;;;;;;;11.17;8.00;;;;;;;32.35;36.50;94998.75;5017468;28;20449;-84
2022/07/22 06:32:59;;;;;;;8.80;7.63;;;;;;;32.57;36.15;95006.75;5052510;28;20634;-82
2022/07/22 06:35:26;;;;;;;9.43;8.43;;;;;;;32.71;36.66;95001.69;5051756;28;20952;-83
2022/07/22 06:37:53;;;;;;;11.50;7.57;;;;;;;32.81;35.90;95001.72;5052010;28;20492;-84
2022/07/22 06:40:21;;;;;;;11.23;7.70;;;;;;;32.79;35.65;94995.75;5052466;28;20824;-83
2022/07/22 06:42:50;;;;;;;10.40;7.80;;;;;;;32.86;36.48;94988.97;5052197;28;20446;-83
2022/07/22 06:45:17;;;;;;;9.70;7.53;;;;;;;33.01;35.60;94996.38;5052223;28;20461;-84
2022/07/22 06:47:45;;;;;;;8.20;7.40;;;;;;;33.28;35.67;95000.78;5052474;28;20833;-84
2022/07/22 06:50:12;;;;;;;8.53;7.00;;;;;;;33.61;36.48;95000.31;5052321;28;20450;-84
2022/07/22 06:52:40;;;;;;;8.87;7.97;;;;;;;33.64;35.81;95005.22;5051939;28;20457;-83
2022/07/22 06:55:08;;;;;;;13.70;8.10;;;;;;;33.38;35.51;95003.53;5051966;28;20545;-83
2022/07/22 06:57:35;;;;;;;10.93;8.13;;;;;;;33.07;36.26;95003.47;5052527;28;20507;-84
2022/07/22 07:00:04;;;;;;;9.27;7.93;;;;;;;32.94;37.19;94998.50;5051848;28;20446;-84
2022/07/22 07:02:31;;;;;;;8.90;8.00;;;;;;;32.81;37.78;95001.72;5051969;28;20437;-84
2022/07/22 07:04:59;;;;;;;10.83;8.40;;;;;;;32.53;38.85;95000.22;5051860;28;20470;-82
2022/07/22 07:07:26;;;;;;;14.27;8.67;;;;;;;32.32;37.83;95008.25;5051892;28;20453;-82
2022/07/22 07:09:53;;;;;;;8.90;8.20;;;;;;;32.38;38.28;95002.84;5033347;28;20445;-83
2022/07/22 07:12:19;;;;;;;10.10;7.93;;;;;;;32.35;37.58;94999.59;5033001;28;20452;-83
2022/07/22 07:14:46;;;;;;;13.70;7.97;;;;;;;32.56;37.42;95002.41;5016745;28;20430;-83
2022/07/22 07:17:15;;;;;;;11.10;8.10;;;;;;;32.40;38.31;95001.53;5052052;28;20925;-84
2022/07/22 07:19:42;;;;;;;16.00;8.37;;;;;;;32.43;37.63;95008.34;5051730;28;20562;-83
2022/07/22 07:22:10;;;;;;;13.07;8.03;;;;;;;32.51;37.45;94996.97;5051581;28;20430;-83
2022/07/22 07:24:37;;;;;;;10.00;7.80;;;;;;;32.73;38.65;95008.47;5051699;28;20450;-84
2022/07/22 07:27:04;;;;;;;9.20;8.30;;;;;;;33.06;37.62;95004.53;5051717;28;20481;-83
2022/07/22 07:29:30;;;;;;;13.63;9.03;;;;;;;33.22;36.86;95003.47;5051789;28;20441;-84
2022/07/22 07:31:57;;;;;;;14.70;7.80;;;;;;;33.38;37.54;94998.09;5051684;28;20430;-82
2022/07/22 07:34:24;;;;;;;13.37;7.87;;;;;;;33.55;36.42;95004.13;5051720;28;20449;-84
2022/07/22 07:36:51;;;;;;;10.73;6.10;;;;;;;33.84;33.51;95001.72;5051694;28;20449;-84
2022/07/22 07:39:19;;;;;;;9.33;6.47;;;;;;;34.15;33.25;95014.22;5051369;28;20488;-85
2022/07/22 07:41:46;;;;;;;8.60;6.00;;;;;;;34.12;32.98;94994.88;5051631;28;20446;-84
2022/07/22 07:44:13;;;;;;;13.93;6.37;;;;;;;33.94;31.44;94995.44;5016653;28;20492;-83
2022/07/22 07:46:40;;;;;;;6.93;6.10;;;;;;;33.74;32.40;95010.66;5053226;28;20496;-85
2022/07/22 07:49:07;;;;;;;13.40;6.33;;;;;;;33.68;32.11;95009.03;5055646;28;20929;-84
2022/07/22 07:51:33;;;;;;;7.93;7.07;;;;;;;33.67;32.10;94998.41;5055667;28;20524;-84
2022/07/22 07:54:00;;;;;;;11.30;6.23;;;;;;;33.34;32.37;95002.47;5055072;28;20893;-85
2022/07/22 07:56:29;;;;;;;7.10;6.40;;;;;;;33.51;32.89;95000.28;5055250;28;20449;-84
2022/07/22 07:58:55;;;;;;;7.90;7.10;;;;;;;33.73;32.14;94997.31;5055099;28;20493;-83
2022/07/22 08:01:22;;;;;;;14.70;7.40;;;;;;;33.81;32.12;94997.56;5055017;28;20811;-84
2022/07/22 08:03:49;;;;;;;6.83;5.90;;;;;;;33.80;31.45;94995.13;5019817;28;20445;-84
2022/07/22 08:06:22;;;;;;;6.07;5.50;;;;;;;33.87;32.33;94993.00;5054837;28;20456;-84
2022/07/22 08:08:49;;;;;;;9.00;6.30;;;;;;;34.12;31.52;94997.59;5055098;28;20448;-83
2022/07/22 08:11:26;;;;;;;7.53;6.20;;;;;;;34.39;32.15;95006.28;5054855;28;20932;-83
2022/07/22 08:13:54;;;;;;;8.87;6.23;;;;;;;34.48;29.87;95003.81;5022737;28;20491;-84
2022/07/22 08:16:21;;;;;;;7.83;5.70;;;;;;;34.33;28.73;95001.91;5054622;28;20446;-84
2022/07/22 08:18:48;;;;;;;6.30;5.70;;;;;;;33.95;29.07;94999.78;5054776;28;20563;-83
2022/07/22 08:21:15;;;;;;;9.73;5.97;;;;;;;34.06;31.24;94993.22;5054483;28;20453;-83
2022/07/22 08:23:41;;;;;;;5.63;5.13;;;;;;;34.15;30.12;94997.88;5054565;28;20445;-84
2022/07/22 08:26:08;;;;;;;12.03;6.30;;;;;;;34.26;29.57;94995.94;5019325;28;20442;-84
2022/07/22 08:28:35;;;;;;;9.80;6.10;;;;;;;34.41;29.62;95001.38;5054613;28;20508;-83
2022/07/22 08:31:03;;;;;;;6.60;5.90;;;;;;;34.41;30.21;95008.75;5054469;28;20940;-83
2022/07/22 08:33:30;;;;;;;9.60;5.80;;;;;;;34.44;29.25;95008.19;5054544;28;20454;-83
2022/07/22 08:35:57;;;;;;;8.20;6.73;;;;;;;34.51;30.68;95002.44;5054698;28;20441;-83
2022/07/22 08:38:24;;;;;;;10.00;6.00;;;;;;;34.35;30.57;94999.75;5054161;28;20477;-83
2022/07/22 08:40:54;;;;;;;6.40;5.80;;;;;;;34.57;29.56;94995.88;5054030;28;20561;-84
2022/07/22 08:43:21;;;;;;;7.23;5.13;;;;;;;34.64;29.22;94997.19;5054118;28;20449;-83
2022/07/22 08:45:49;;;;;;;7.60;5.60;;;;;;;34.67;28.86;95001.28;5053913;28;20442;-82
2022/07/22 08:48:17;;;;;;;11.20;5.37;;;;;;;34.57;29.80;94991.25;5054313;28;20437;-83
2022/07/22 08:50:44;;;;;;;5.87;5.40;;;;;;;34.22;29.18;94999.47;5054462;28;20814;-84
2022/07/22 08:53:12;;;;;;;8.80;5.40;;;;;;;34.25;29.14;94997.03;5054104;28;20819;-84
2022/07/22 08:55:42;;;;;;;9.60;5.73;;;;;;;34.35;30.28;94999.75;5019273;28;20453;-83
2022/07/22 08:58:08;;;;;;;7.73;5.60;;;;;;;34.56;30.27;94999.69;5053456;28;20469;-84
2022/07/22 09:00:35;;;;;;;7.07;6.13;;;;;;;34.47;29.02;94996.72;5018552;28;20943;-84
2022/07/22 09:03:20;;;;;;;6.77;6.00;;;;;;;34.27;29.23;95002.19;5054034;28;20453;-84
2022/07/22 09:05:47;;;;;;;8.80;5.47;;;;;;;34.38;29.61;95003.81;5053990;28;20481;-84
2022/07/22 09:08:14;;;;;;;7.00;5.23;;;;;;;34.43;30.83;95001.09;5053753;28;20445;-84
2022/07/22 09:10:40;;;;;;;6.40;5.80;;;;;;;34.50;30.54;95007.06;5053687;28;20442;-84
2022/07/22 09:13:09;;;;;;;9.33;5.83;;;;;;;34.56;29.94;95016.06;5053446;28;20445;-84
2022/07/22 09:15:39;;;;;;;7.23;5.73;;;;;;;34.32;29.63;95005.72;5053978;28;20425;-84
2022/07/22 09:18:06;;;;;;;7.23;6.27;;;;;;;34.36;29.83;95012.28;5053959;28;20805;-83
2022/07/22 09:20:35;;;;;;;6.93;6.20;;;;;;;34.27;29.30;95003.00;5053725;28;20446;-84
2022/07/22 09:23:03;;;;;;;8.17;5.93;;;;;;;34.27;28.73;95004.91;5053389;28;20444;-84
2022/07/22 09:25:32;;;;;;;10.20;5.50;;;;;;;34.27;29.22;95007.66;5053785;28;20446;-83
2022/07/22 09:28:13;;;;;;;8.40;5.93;;;;;;;34.17;29.68;94997.59;5053572;28;20449;-86
2022/07/22 09:30:41;;;;;;;5.40;4.90;;;;;;;34.23;28.97;95001.94;5053237;28;20817;-81
2022/07/22 09:33:09;;;;;;;5.90;5.30;;;;;;;34.27;29.90;95003.00;5053745;28;20444;-83
2022/07/22 09:35:39;;;;;;;7.03;6.03;;;;;;;34.35;29.61;94997.03;5053184;28;20446;-84
2022/07/22 09:38:09;;;;;;;6.90;5.83;;;;;;;34.26;28.63;94995.13;5053313;28;20450;-85
2022/07/22 09:40:37;;;;;;;6.13;5.43;;;;;;;34.07;29.67;95001.13;5052869;28;20437;-83
2022/07/22 09:43:06;;;;;;;9.50;6.23;;;;;;;33.97;30.23;94998.44;5053296;28;20954;-83
2022/07/22 09:45:34;;;;;;;6.63;4.90;;;;;;;33.97;30.52;94997.59;5053046;28;20441;-82
2022/07/22 09:48:03;;;;;;;6.27;5.20;;;;;;;33.97;29.65;94994.88;5052683;28;20477;-83
2022/07/22 09:50:31;;;;;;;6.27;4.87;;;;;;;33.97;31.06;94992.97;5001322;28;20438;-83
2022/07/22 09:53:01;;;;;;;9.90;6.10;;;;;;;33.94;29.79;94993.53;5053356;28;20442;-83
2022/07/22 09:55:30;;;;;;;11.97;5.67;;;;;;;33.80;30.98;94993.22;5052823;28;20452;-84
2022/07/22 09:57:58;;;;;;;6.57;5.73;;;;;;;33.84;31.05;94993.53;5053425;28;20437;-84
2022/07/22 10:00:27;;;;;;;6.97;5.40;;;;;;;33.64;29.80;94988.88;5052693;28;20485;-83
2022/07/22 10:02:57;;;;;;;6.70;5.60;;;;;;;33.61;31.21;94977.72;5052836;28;20444;-83
2022/07/22 10:05:26;;;;;;;7.07;6.37;;;;;;;33.60;30.24;94982.34;5052443;28;20446;-81
2022/07/22 10:07:54;;;;;;;6.30;5.67;;;;;;;33.66;30.58;94985.88;5052785;28;20450;-82
2022/07/22 10:10:25;;;;;;;13.00;6.07;;;;;;;33.75;31.33;94976.88;5051745;28;20944;-84
2022/07/22 10:12:56;;;;;;;7.23;5.63;;;;;;;33.83;31.58;94981.84;5052321;28;20450;-83
2022/07/22 10:15:24;;;;;;;7.03;6.33;;;;;;;33.92;32.05;94973.94;5052398;28;20452;-81
2022/07/22 10:17:53;;;;;;;9.63;5.73;;;;;;;33.97;31.03;94971.19;5052260;28;20818;-84
2022/07/22 10:20:22;;;;;;;9.90;6.03;;;;;;;33.99;30.78;94970.91;5052265;28;20481;-82
2022/07/22 10:22:52;;;;;;;10.80;5.27;;;;;;;33.99;31.85;94966.28;5052263;28;20445;-83
2022/07/22 10:25:21;;;;;;;11.33;6.60;;;;;;;33.92;30.09;94968.47;5052605;28;20449;-82
2022/07/22 10:27:51;;;;;;;12.27;5.93;;;;;;;33.88;30.82;94969.31;5052272;28;20450;-83
2022/07/22 10:30:19;;;;;;;6.47;5.60;;;;;;;33.82;30.47;94971.97;5052237;28;20446;-83
2022/07/22 10:32:46;;;;;;;10.97;6.27;;;;;;;33.79;30.63;94964.34;5052249;28;20442;-83
2022/07/22 10:35:26;;;;;;;8.63;6.07;;;;;;;33.76;30.63;94970.34;5052381;28;20448;-83
2022/07/22 10:37:55;;;;;;;7.23;6.07;;;;;;;33.79;30.48;94969.81;5052164;28;20851;-83
2022/07/22 10:40:23;;;;;;;8.63;6.50;;;;;;;33.83;30.44;94964.69;5052173;28;20532;-84
2022/07/22 10:43:10;;;;;;;14.03;6.50;;;;;;;33.75;30.65;94971.44;5052014;28;20882;-84
2022/07/22 10:45:39;;;;;;;16.77;6.37;;;;;;;33.60;30.84;94970.66;5052195;28;20507;-83
2022/07/22 10:48:09;;;;;;;7.60;6.87;;;;;;;33.49;31.76;94973.34;5016826;28;20477;-83
2022/07/22 10:50:50;;;;;;;6.23;5.50;;;;;;;33.42;31.80;94974.72;5052267;28;20449;-83
2022/07/22 10:53:22;;;;;;;8.00;6.20;;;;;;;33.36;31.85;94967.63;5052050;28;20947;-83
2022/07/22 10:56:04;;;;;;;7.90;5.67;;;;;;;33.13;31.88;94967.03;5052223;28;20441;-83
2022/07/22 10:59:09;;;;;;;6.63;6.00;;;;;;;33.17;32.10;94962.66;5051984;28;20445;-84
2022/07/22 11:01:36;;;;;;;9.33;5.83;;;;;;;33.23;31.72;94964.31;5052133;28;20457;-83
2022/07/22 11:04:11;;;;;;;11.50;6.40;;;;;;;33.22;31.46;94965.38;5052304;28;20453;-83
2022/07/22 11:06:38;;;;;;;6.80;6.10;;;;;;;33.02;31.93;94956.41;5052016;28;20449;-83
2022/07/22 11:09:08;;;;;;;9.87;6.60;;;;;;;32.94;31.30;94957.72;5016716;28;20445;-83
2022/07/22 11:11:44;;;;;;;7.30;5.90;;;;;;;33.17;31.81;94959.94;5051741;28;20445;-83
2022/07/22 11:14:17;;;;;;;7.20;6.53;;;;;;;33.28;32.40;94963.53;5052236;28;20459;-83
2022/07/22 11:16:45;;;;;;;10.43;6.90;;;;;;;33.33;31.00;94960.84;5051583;28;20825;-83
2022/07/22 11:19:12;;;;;;;6.10;5.50;;;;;;;33.40;30.46;94955.13;5051958;28;20508;-84
2022/07/22 11:21:39;;;;;;;7.83;6.10;;;;;;;33.45;30.52;94955.94;5055090;28;20438;-83
2022/07/22 11:24:08;;;;;;;8.00;6.07;;;;;;;33.44;31.78;94954.31;5037180;28;20448;-83
2022/07/22 11:26:40;;;;;;;9.20;5.80;;;;;;;33.47;30.90;94961.91;5055670;28;21010;-83
2022/07/22 11:29:07;;;;;;;12.87;6.60;;;;;;;33.53;30.61;94949.94;5055810;28;20449;-83
2022/07/22 11:31:35;;;;;;;10.70;6.17;;;;;;;33.66;30.21;94954.03;5055809;28;20445;-83